sensor_id;sensor_type;location;lat;lon;timestamp;P1;durP1;ratioP1;P2;durP2;ratioP2
52942;SDS011;38809;53.300;6.614;2022-12-13T00:02:18;28.23;;;12.93;;
52942;SDS011;38809;53.300;6.614;2022-12-13T00:04:43;28.90;;;14.03;;
52942;SDS011;38809;53.300;6.614;2022-12-13T00:07:09;31.60;;;13.65;;
52942;SDS011;38809;53.300;6.614;2022-12-13T00:09:35;31.27;;;15.27;;
52942;SDS011;38809;53.300;6.614;2022-12-13T00:12:01;33.95;;;15.73;;
52942;SDS011;38809;53.300;6.614;2022-12-13T00:14:26;31.80;;;15.73;;
52942;SDS011;38809;53.300;6.614;2022-12-13T00:16:52;29.53;;;13.73;;
52942;SDS011;38809;53.300;6.614;2022-12-13T00:19:18;36.10;;;15.27;;
52942;SDS011;38809;53.300;6.614;2022-12-13T00:21:44;33.33;;;14.68;;
52942;SDS011;38809;53.300;6.614;2022-12-13T00:24:10;26.02;;;14.07;;
52942;SDS011;38809;53.300;6.614;2022-12-13T00:26:35;29.95;;;13.98;;
52942;SDS011;38809;53.300;6.614;2022-12-13T00:29:02;29.17;;;12.77;;
52942;SDS011;38809;53.300;6.614;2022-12-13T00:31:29;27.55;;;15.23;;
52942;SDS011;38809;53.300;6.614;2022-12-13T00:33:58;27.95;;;14.60;;
52942;SDS011;38809;53.300;6.614;2022-12-13T00:36:24;32.20;;;15.15;;
52942;SDS011;38809;53.300;6.614;2022-12-13T00:38:50;29.92;;;14.93;;
52942;SDS011;38809;53.300;6.614;2022-12-13T00:41:24;29.52;;;13.13;;
52942;SDS011;38809;53.300;6.614;2022-12-13T00:43:52;27.35;;;12.50;;
52942;SDS011;38809;53.300;6.614;2022-12-13T00:46:19;30.10;;;14.23;;
52942;SDS011;38809;53.300;6.614;2022-12-13T00:48:48;27.60;;;12.27;;
52942;SDS011;38809;53.300;6.614;2022-12-13T00:51:15;24.88;;;11.65;;
52942;SDS011;38809;53.300;6.614;2022-12-13T00:56:11;27.55;;;12.77;;
52942;SDS011;38809;53.300;6.614;2022-12-13T00:58:39;26.80;;;12.48;;
52942;SDS011;38809;53.300;6.614;2022-12-13T01:01:09;27.65;;;13.48;;
52942;SDS011;38809;53.300;6.614;2022-12-13T01:03:36;25.42;;;12.15;;
52942;SDS011;38809;53.300;6.614;2022-12-13T01:08:50;29.13;;;12.73;;
52942;SDS011;38809;53.300;6.614;2022-12-13T01:11:16;27.58;;;13.15;;
52942;SDS011;38809;53.300;6.614;2022-12-13T01:13:42;25.80;;;13.23;;
52942;SDS011;38809;53.300;6.614;2022-12-13T01:16:08;28.73;;;13.45;;
52942;SDS011;38809;53.300;6.614;2022-12-13T01:18:36;28.75;;;13.93;;
52942;SDS011;38809;53.300;6.614;2022-12-13T01:21:07;28.90;;;12.95;;
52942;SDS011;38809;53.300;6.614;2022-12-13T01:23:35;26.63;;;12.90;;
52942;SDS011;38809;53.300;6.614;2022-12-13T01:26:05;27.85;;;12.23;;
52942;SDS011;38809;53.300;6.614;2022-12-13T01:28:33;26.45;;;12.98;;
52942;SDS011;38809;53.300;6.614;2022-12-13T01:31:01;28.80;;;12.77;;
52942;SDS011;38809;53.300;6.614;2022-12-13T01:33:30;29.90;;;13.23;;
52942;SDS011;38809;53.300;6.614;2022-12-13T01:35:58;27.15;;;12.43;;
52942;SDS011;38809;53.300;6.614;2022-12-13T01:38:25;26.73;;;11.98;;
52942;SDS011;38809;53.300;6.614;2022-12-13T01:40:51;26.33;;;12.60;;
52942;SDS011;38809;53.300;6.614;2022-12-13T01:43:27;27.73;;;12.35;;
52942;SDS011;38809;53.300;6.614;2022-12-13T01:45:56;33.78;;;14.07;;
52942;SDS011;38809;53.300;6.614;2022-12-13T01:48:23;27.63;;;12.83;;
52942;SDS011;38809;53.300;6.614;2022-12-13T01:50:53;34.08;;;13.80;;
52942;SDS011;38809;53.300;6.614;2022-12-13T01:53:27;29.02;;;12.82;;
52942;SDS011;38809;53.300;6.614;2022-12-13T01:55:57;30.23;;;13.57;;
52942;SDS011;38809;53.300;6.614;2022-12-13T01:58:27;30.48;;;13.50;;
52942;SDS011;38809;53.300;6.614;2022-12-13T02:00:54;31.60;;;14.43;;
52942;SDS011;38809;53.300;6.614;2022-12-13T02:05:52;27.10;;;12.10;;
52942;SDS011;38809;53.300;6.614;2022-12-13T02:08:25;27.25;;;12.50;;
52942;SDS011;38809;53.300;6.614;2022-12-13T02:10:50;29.63;;;13.87;;
52942;SDS011;38809;53.300;6.614;2022-12-13T02:13:17;27.13;;;12.90;;
52942;SDS011;38809;53.300;6.614;2022-12-13T02:15:53;27.63;;;13.23;;
52942;SDS011;38809;53.300;6.614;2022-12-13T02:21:27;31.25;;;13.43;;
52942;SDS011;38809;53.300;6.614;2022-12-13T02:32:57;30.50;;;13.23;;
52942;SDS011;38809;53.300;6.614;2022-12-13T02:38:42;26.95;;;12.35;;
52942;SDS011;38809;53.300;6.614;2022-12-13T02:40:45;27.58;;;12.18;;
52942;SDS011;38809;53.300;6.614;2022-12-13T02:43:52;28.63;;;13.50;;
52942;SDS011;38809;53.300;6.614;2022-12-13T02:46:14;26.55;;;12.20;;
52942;SDS011;38809;53.300;6.614;2022-12-13T02:48:43;30.40;;;13.02;;
52942;SDS011;38809;53.300;6.614;2022-12-13T02:51:11;24.63;;;11.65;;
52942;SDS011;38809;53.300;6.614;2022-12-13T02:53:38;28.15;;;13.00;;
52942;SDS011;38809;53.300;6.614;2022-12-13T02:56:06;23.88;;;12.02;;
52942;SDS011;38809;53.300;6.614;2022-12-13T02:58:33;27.38;;;14.10;;
52942;SDS011;38809;53.300;6.614;2022-12-13T03:06:26;22.98;;;11.05;;
52942;SDS011;38809;53.300;6.614;2022-12-13T03:17:44;29.48;;;12.07;;
52942;SDS011;38809;53.300;6.614;2022-12-13T03:20:27;30.05;;;13.00;;
52942;SDS011;38809;53.300;6.614;2022-12-13T03:22:54;23.20;;;11.27;;
52942;SDS011;38809;53.300;6.614;2022-12-13T03:25:21;24.67;;;12.55;;
52942;SDS011;38809;53.300;6.614;2022-12-13T03:27:48;29.23;;;13.38;;
52942;SDS011;38809;53.300;6.614;2022-12-13T03:30:15;26.35;;;12.35;;
52942;SDS011;38809;53.300;6.614;2022-12-13T03:32:41;27.23;;;13.23;;
52942;SDS011;38809;53.300;6.614;2022-12-13T03:35:06;27.43;;;13.60;;
52942;SDS011;38809;53.300;6.614;2022-12-13T03:37:32;27.48;;;11.70;;
52942;SDS011;38809;53.300;6.614;2022-12-13T03:39:58;28.15;;;13.05;;
52942;SDS011;38809;53.300;6.614;2022-12-13T03:42:24;26.65;;;12.60;;
52942;SDS011;38809;53.300;6.614;2022-12-13T03:44:50;31.77;;;13.73;;
52942;SDS011;38809;53.300;6.614;2022-12-13T03:47:16;25.80;;;12.45;;
52942;SDS011;38809;53.300;6.614;2022-12-13T03:49:42;26.52;;;12.73;;
52942;SDS011;38809;53.300;6.614;2022-12-13T03:52:07;30.07;;;13.27;;
52942;SDS011;38809;53.300;6.614;2022-12-13T03:54:33;27.52;;;12.73;;
52942;SDS011;38809;53.300;6.614;2022-12-13T03:56:59;24.83;;;11.80;;
52942;SDS011;38809;53.300;6.614;2022-12-13T03:59:25;29.30;;;12.95;;
52942;SDS011;38809;53.300;6.614;2022-12-13T04:01:51;25.17;;;12.23;;
52942;SDS011;38809;53.300;6.614;2022-12-13T04:04:17;27.50;;;12.82;;
52942;SDS011;38809;53.300;6.614;2022-12-13T04:06:43;23.23;;;12.00;;
52942;SDS011;38809;53.300;6.614;2022-12-13T04:09:09;28.95;;;12.00;;
52942;SDS011;38809;53.300;6.614;2022-12-13T04:11:34;25.03;;;12.13;;
52942;SDS011;38809;53.300;6.614;2022-12-13T04:14:18;23.35;;;11.15;;
52942;SDS011;38809;53.300;6.614;2022-12-13T04:16:44;30.25;;;13.57;;
52942;SDS011;38809;53.300;6.614;2022-12-13T04:19:10;28.30;;;13.05;;
52942;SDS011;38809;53.300;6.614;2022-12-13T04:21:35;26.50;;;11.70;;
52942;SDS011;38809;53.300;6.614;2022-12-13T04:24:01;26.27;;;11.77;;
52942;SDS011;38809;53.300;6.614;2022-12-13T04:26:27;21.65;;;11.82;;
52942;SDS011;38809;53.300;6.614;2022-12-13T04:28:53;22.80;;;12.20;;
52942;SDS011;38809;53.300;6.614;2022-12-13T04:31:19;26.53;;;11.83;;
52942;SDS011;38809;53.300;6.614;2022-12-13T04:33:44;23.67;;;11.67;;
52942;SDS011;38809;53.300;6.614;2022-12-13T04:36:10;23.03;;;11.83;;
52942;SDS011;38809;53.300;6.614;2022-12-13T04:38:36;21.13;;;11.38;;
52942;SDS011;38809;53.300;6.614;2022-12-13T04:41:05;22.63;;;10.90;;
52942;SDS011;38809;53.300;6.614;2022-12-13T04:43:32;25.77;;;11.63;;
52942;SDS011;38809;53.300;6.614;2022-12-13T04:45:57;25.13;;;11.00;;
52942;SDS011;38809;53.300;6.614;2022-12-13T04:48:23;26.47;;;11.83;;
52942;SDS011;38809;53.300;6.614;2022-12-13T04:50:49;25.03;;;11.30;;
52942;SDS011;38809;53.300;6.614;2022-12-13T04:53:14;23.37;;;11.07;;
52942;SDS011;38809;53.300;6.614;2022-12-13T04:55:40;24.13;;;10.87;;
52942;SDS011;38809;53.300;6.614;2022-12-13T04:58:06;20.92;;;11.20;;
52942;SDS011;38809;53.300;6.614;2022-12-13T05:00:32;24.40;;;11.83;;
52942;SDS011;38809;53.300;6.614;2022-12-13T05:02:57;25.23;;;12.23;;
52942;SDS011;38809;53.300;6.614;2022-12-13T05:05:23;25.52;;;11.25;;
52942;SDS011;38809;53.300;6.614;2022-12-13T05:07:49;23.25;;;11.65;;
52942;SDS011;38809;53.300;6.614;2022-12-13T05:10:14;23.60;;;11.90;;
52942;SDS011;38809;53.300;6.614;2022-12-13T05:12:41;23.42;;;11.52;;
52942;SDS011;38809;53.300;6.614;2022-12-13T05:15:06;24.57;;;11.47;;
52942;SDS011;38809;53.300;6.614;2022-12-13T05:17:32;25.48;;;12.77;;
52942;SDS011;38809;53.300;6.614;2022-12-13T05:19:58;26.55;;;13.35;;
52942;SDS011;38809;53.300;6.614;2022-12-13T05:22:24;26.45;;;12.38;;
52942;SDS011;38809;53.300;6.614;2022-12-13T05:24:50;27.02;;;12.07;;
52942;SDS011;38809;53.300;6.614;2022-12-13T05:27:16;24.37;;;12.03;;
52942;SDS011;38809;53.300;6.614;2022-12-13T05:29:42;23.23;;;11.23;;
52942;SDS011;38809;53.300;6.614;2022-12-13T05:32:07;23.08;;;11.35;;
52942;SDS011;38809;53.300;6.614;2022-12-13T05:34:33;25.37;;;12.97;;
52942;SDS011;38809;53.300;6.614;2022-12-13T05:36:59;24.90;;;11.73;;
52942;SDS011;38809;53.300;6.614;2022-12-13T05:39:25;21.77;;;10.68;;
52942;SDS011;38809;53.300;6.614;2022-12-13T05:41:50;24.10;;;11.48;;
52942;SDS011;38809;53.300;6.614;2022-12-13T05:44:17;25.25;;;10.30;;
52942;SDS011;38809;53.300;6.614;2022-12-13T05:46:43;21.87;;;11.07;;
52942;SDS011;38809;53.300;6.614;2022-12-13T05:49:09;22.85;;;12.27;;
52942;SDS011;38809;53.300;6.614;2022-12-13T05:51:34;21.17;;;10.73;;
52942;SDS011;38809;53.300;6.614;2022-12-13T05:54:00;25.50;;;11.73;;
52942;SDS011;38809;53.300;6.614;2022-12-13T05:56:26;26.48;;;12.77;;
52942;SDS011;38809;53.300;6.614;2022-12-13T05:58:51;25.07;;;11.00;;
52942;SDS011;38809;53.300;6.614;2022-12-13T06:01:18;22.20;;;11.05;;
52942;SDS011;38809;53.300;6.614;2022-12-13T06:03:44;20.55;;;10.80;;
52942;SDS011;38809;53.300;6.614;2022-12-13T06:06:11;24.88;;;12.35;;
52942;SDS011;38809;53.300;6.614;2022-12-13T06:08:37;24.15;;;11.73;;
52942;SDS011;38809;53.300;6.614;2022-12-13T06:11:03;23.00;;;12.10;;
52942;SDS011;38809;53.300;6.614;2022-12-13T06:13:30;25.27;;;11.32;;
52942;SDS011;38809;53.300;6.614;2022-12-13T06:16:00;23.60;;;11.87;;
52942;SDS011;38809;53.300;6.614;2022-12-13T06:18:29;26.75;;;12.35;;
52942;SDS011;38809;53.300;6.614;2022-12-13T06:20:56;25.85;;;11.88;;
52942;SDS011;38809;53.300;6.614;2022-12-13T06:23:23;22.10;;;11.60;;
52942;SDS011;38809;53.300;6.614;2022-12-13T06:25:48;21.43;;;10.97;;
52942;SDS011;38809;53.300;6.614;2022-12-13T06:28:14;22.93;;;11.27;;
52942;SDS011;38809;53.300;6.614;2022-12-13T06:30:40;24.48;;;11.82;;
52942;SDS011;38809;53.300;6.614;2022-12-13T06:33:06;24.77;;;12.27;;
52942;SDS011;38809;53.300;6.614;2022-12-13T06:35:32;21.80;;;10.93;;
52942;SDS011;38809;53.300;6.614;2022-12-13T06:37:58;21.73;;;11.27;;
52942;SDS011;38809;53.300;6.614;2022-12-13T06:40:24;20.92;;;10.77;;
52942;SDS011;38809;53.300;6.614;2022-12-13T06:42:49;21.70;;;11.00;;
52942;SDS011;38809;53.300;6.614;2022-12-13T06:45:15;23.07;;;11.90;;
52942;SDS011;38809;53.300;6.614;2022-12-13T06:47:41;25.55;;;11.70;;
52942;SDS011;38809;53.300;6.614;2022-12-13T06:50:06;24.35;;;12.57;;
52942;SDS011;38809;53.300;6.614;2022-12-13T06:52:33;24.45;;;12.20;;
52942;SDS011;38809;53.300;6.614;2022-12-13T06:55:00;27.65;;;11.93;;
52942;SDS011;38809;53.300;6.614;2022-12-13T06:57:26;25.52;;;12.73;;
52942;SDS011;38809;53.300;6.614;2022-12-13T06:59:52;27.03;;;11.93;;
52942;SDS011;38809;53.300;6.614;2022-12-13T07:02:17;22.60;;;11.50;;
52942;SDS011;38809;53.300;6.614;2022-12-13T07:04:43;49.97;;;14.40;;
52942;SDS011;38809;53.300;6.614;2022-12-13T07:07:09;24.95;;;13.75;;
52942;SDS011;38809;53.300;6.614;2022-12-13T07:09:35;28.55;;;14.00;;
52942;SDS011;38809;53.300;6.614;2022-12-13T07:12:01;28.70;;;12.80;;
52942;SDS011;38809;53.300;6.614;2022-12-13T07:14:27;27.13;;;13.57;;
52942;SDS011;38809;53.300;6.614;2022-12-13T07:16:52;28.00;;;14.25;;
52942;SDS011;38809;53.300;6.614;2022-12-13T07:19:18;22.50;;;12.35;;
52942;SDS011;38809;53.300;6.614;2022-12-13T07:21:44;22.63;;;12.67;;
52942;SDS011;38809;53.300;6.614;2022-12-13T07:24:09;23.77;;;11.83;;
52942;SDS011;38809;53.300;6.614;2022-12-13T07:26:35;22.92;;;13.00;;
52942;SDS011;38809;53.300;6.614;2022-12-13T07:29:02;26.67;;;13.25;;
52942;SDS011;38809;53.300;6.614;2022-12-13T07:31:28;28.05;;;13.48;;
52942;SDS011;38809;53.300;6.614;2022-12-13T07:33:54;26.13;;;12.40;;
52942;SDS011;38809;53.300;6.614;2022-12-13T07:36:21;22.10;;;12.55;;
52942;SDS011;38809;53.300;6.614;2022-12-13T07:38:51;23.33;;;13.13;;
52942;SDS011;38809;53.300;6.614;2022-12-13T07:41:19;28.20;;;12.90;;
52942;SDS011;38809;53.300;6.614;2022-12-13T07:46:11;24.33;;;11.45;;
52942;SDS011;38809;53.300;6.614;2022-12-13T07:48:37;25.02;;;12.43;;
52942;SDS011;38809;53.300;6.614;2022-12-13T07:53:31;23.05;;;11.55;;
52942;SDS011;38809;53.300;6.614;2022-12-13T07:55:59;25.20;;;12.15;;
52942;SDS011;38809;53.300;6.614;2022-12-13T07:58:27;29.02;;;12.85;;
52942;SDS011;38809;53.300;6.614;2022-12-13T08:00:58;21.25;;;11.77;;
52942;SDS011;38809;53.300;6.614;2022-12-13T08:03:32;22.33;;;11.70;;
52942;SDS011;38809;53.300;6.614;2022-12-13T08:05:59;22.70;;;12.88;;
52942;SDS011;38809;53.300;6.614;2022-12-13T08:08:30;24.90;;;14.07;;
52942;SDS011;38809;53.300;6.614;2022-12-13T08:13:33;23.02;;;13.80;;
52942;SDS011;38809;53.300;6.614;2022-12-13T08:16:00;22.48;;;12.15;;
52942;SDS011;38809;53.300;6.614;2022-12-13T08:18:27;24.27;;;12.43;;
52942;SDS011;38809;53.300;6.614;2022-12-13T08:20:58;22.73;;;12.35;;
52942;SDS011;38809;53.300;6.614;2022-12-13T08:23:28;19.58;;;10.95;;
52942;SDS011;38809;53.300;6.614;2022-12-13T08:25:55;21.38;;;11.85;;
52942;SDS011;38809;53.300;6.614;2022-12-13T08:28:22;18.27;;;11.52;;
52942;SDS011;38809;53.300;6.614;2022-12-13T08:30:49;21.13;;;11.63;;
52942;SDS011;38809;53.300;6.614;2022-12-13T08:33:14;25.25;;;14.00;;
52942;SDS011;38809;53.300;6.614;2022-12-13T08:35:40;25.73;;;12.65;;
52942;SDS011;38809;53.300;6.614;2022-12-13T08:38:07;21.65;;;12.25;;
52942;SDS011;38809;53.300;6.614;2022-12-13T08:42:59;25.88;;;12.18;;
52942;SDS011;38809;53.300;6.614;2022-12-13T08:45:25;22.65;;;12.82;;
52942;SDS011;38809;53.300;6.614;2022-12-13T08:47:51;24.35;;;12.35;;
52942;SDS011;38809;53.300;6.614;2022-12-13T08:50:17;24.92;;;12.40;;
52942;SDS011;38809;53.300;6.614;2022-12-13T08:52:44;22.98;;;12.38;;
52942;SDS011;38809;53.300;6.614;2022-12-13T08:55:10;24.60;;;13.88;;
52942;SDS011;38809;53.300;6.614;2022-12-13T08:57:37;23.25;;;13.38;;
52942;SDS011;38809;53.300;6.614;2022-12-13T09:02:30;25.48;;;12.93;;
52942;SDS011;38809;53.300;6.614;2022-12-13T09:04:56;24.45;;;12.90;;
52942;SDS011;38809;53.300;6.614;2022-12-13T09:07:21;25.50;;;12.47;;
52942;SDS011;38809;53.300;6.614;2022-12-13T09:09:47;24.30;;;12.90;;
52942;SDS011;38809;53.300;6.614;2022-12-13T09:12:13;23.08;;;13.15;;
52942;SDS011;38809;53.300;6.614;2022-12-13T09:14:39;26.58;;;12.75;;
52942;SDS011;38809;53.300;6.614;2022-12-13T09:21:56;22.02;;;11.75;;
52942;SDS011;38809;53.300;6.614;2022-12-13T09:24:22;27.38;;;14.00;;
52942;SDS011;38809;53.300;6.614;2022-12-13T09:26:48;25.63;;;13.27;;
52942;SDS011;38809;53.300;6.614;2022-12-13T09:29:14;28.73;;;14.67;;
52942;SDS011;38809;53.300;6.614;2022-12-13T09:31:42;29.85;;;14.38;;
52942;SDS011;38809;53.300;6.614;2022-12-13T09:34:08;25.30;;;13.77;;
52942;SDS011;38809;53.300;6.614;2022-12-13T09:36:35;27.02;;;14.70;;
52942;SDS011;38809;53.300;6.614;2022-12-13T09:41:28;26.75;;;14.50;;
52942;SDS011;38809;53.300;6.614;2022-12-13T09:46:50;27.77;;;14.35;;
52942;SDS011;38809;53.300;6.614;2022-12-13T09:51:53;26.20;;;14.68;;
52942;SDS011;38809;53.300;6.614;2022-12-13T09:54:23;29.42;;;15.57;;
52942;SDS011;38809;53.300;6.614;2022-12-13T09:59:20;30.52;;;15.18;;
52942;SDS011;38809;53.300;6.614;2022-12-13T10:01:53;34.58;;;16.42;;
52942;SDS011;38809;53.300;6.614;2022-12-13T10:06:45;30.58;;;16.50;;
52942;SDS011;38809;53.300;6.614;2022-12-13T10:09:14;27.95;;;15.45;;
52942;SDS011;38809;53.300;6.614;2022-12-13T10:11:50;30.20;;;17.55;;
52942;SDS011;38809;53.300;6.614;2022-12-13T10:14:28;30.27;;;16.60;;
52942;SDS011;38809;53.300;6.614;2022-12-13T10:16:59;26.83;;;15.95;;
52942;SDS011;38809;53.300;6.614;2022-12-13T10:19:44;31.25;;;16.80;;
52942;SDS011;38809;53.300;6.614;2022-12-13T10:22:14;27.10;;;16.25;;
52942;SDS011;38809;53.300;6.614;2022-12-13T10:24:52;32.38;;;17.55;;
52942;SDS011;38809;53.300;6.614;2022-12-13T10:27:19;29.83;;;16.20;;
52942;SDS011;38809;53.300;6.614;2022-12-13T10:29:56;31.73;;;16.83;;
52942;SDS011;38809;53.300;6.614;2022-12-13T10:32:25;27.58;;;16.30;;
52942;SDS011;38809;53.300;6.614;2022-12-13T10:34:51;28.85;;;16.67;;
52942;SDS011;38809;53.300;6.614;2022-12-13T10:39:48;26.60;;;15.65;;
52942;SDS011;38809;53.300;6.614;2022-12-13T10:42:15;25.58;;;15.27;;
52942;SDS011;38809;53.300;6.614;2022-12-13T10:44:43;25.90;;;14.43;;
52942;SDS011;38809;53.300;6.614;2022-12-13T10:50:01;25.85;;;15.57;;
52942;SDS011;38809;53.300;6.614;2022-12-13T10:52:34;27.45;;;14.38;;
52942;SDS011;38809;53.300;6.614;2022-12-13T10:55:21;33.47;;;16.17;;
52942;SDS011;38809;53.300;6.614;2022-12-13T10:58:02;29.85;;;15.70;;
52942;SDS011;38809;53.300;6.614;2022-12-13T11:03:02;24.90;;;14.35;;
52942;SDS011;38809;53.300;6.614;2022-12-13T11:08:18;24.50;;;14.48;;
52942;SDS011;38809;53.300;6.614;2022-12-13T11:10:55;24.55;;;14.68;;
52942;SDS011;38809;53.300;6.614;2022-12-13T11:13:29;26.83;;;15.35;;
52942;SDS011;38809;53.300;6.614;2022-12-13T11:16:00;27.80;;;16.45;;
52942;SDS011;38809;53.300;6.614;2022-12-13T11:18:29;24.02;;;14.75;;
52942;SDS011;38809;53.300;6.614;2022-12-13T11:21:00;30.25;;;15.95;;
52942;SDS011;38809;53.300;6.614;2022-12-13T11:23:32;28.02;;;15.13;;
52942;SDS011;38809;53.300;6.614;2022-12-13T11:26:06;29.08;;;15.95;;
52942;SDS011;38809;53.300;6.614;2022-12-13T11:34:39;28.00;;;14.60;;
52942;SDS011;38809;53.300;6.614;2022-12-13T11:37:31;30.98;;;16.20;;
52942;SDS011;38809;53.300;6.614;2022-12-13T11:40:13;23.88;;;13.77;;
52942;SDS011;38809;53.300;6.614;2022-12-13T11:42:44;30.85;;;16.65;;
52942;SDS011;38809;53.300;6.614;2022-12-13T11:47:46;22.08;;;12.95;;
52942;SDS011;38809;53.300;6.614;2022-12-13T11:50:22;23.63;;;14.40;;
52942;SDS011;38809;53.300;6.614;2022-12-13T11:52:54;20.60;;;12.93;;
52942;SDS011;38809;53.300;6.614;2022-12-13T11:55:34;23.02;;;12.57;;
52942;SDS011;38809;53.300;6.614;2022-12-13T12:00:37;20.73;;;11.32;;
52942;SDS011;38809;53.300;6.614;2022-12-13T12:03:13;19.50;;;10.80;;
52942;SDS011;38809;53.300;6.614;2022-12-13T12:06:26;18.65;;;11.25;;
52942;SDS011;38809;53.300;6.614;2022-12-13T12:08:46;19.70;;;10.75;;
52942;SDS011;38809;53.300;6.614;2022-12-13T12:11:33;20.63;;;11.85;;
52942;SDS011;38809;53.300;6.614;2022-12-13T12:14:11;19.92;;;11.25;;
52942;SDS011;38809;53.300;6.614;2022-12-13T12:16:38;20.92;;;11.35;;
52942;SDS011;38809;53.300;6.614;2022-12-13T12:19:15;17.35;;;10.55;;
52942;SDS011;38809;53.300;6.614;2022-12-13T12:22:02;20.83;;;11.75;;
52942;SDS011;38809;53.300;6.614;2022-12-13T12:32:42;18.65;;;9.77;;
52942;SDS011;38809;53.300;6.614;2022-12-13T12:41:05;19.05;;;9.95;;
52942;SDS011;38809;53.300;6.614;2022-12-13T12:44:09;16.23;;;9.45;;
52942;SDS011;38809;53.300;6.614;2022-12-13T12:46:56;16.67;;;9.93;;
52942;SDS011;38809;53.300;6.614;2022-12-13T12:52:54;16.77;;;9.32;;
52942;SDS011;38809;53.300;6.614;2022-12-13T13:03:35;15.98;;;9.15;;
52942;SDS011;38809;53.300;6.614;2022-12-13T13:06:08;15.63;;;9.13;;
52942;SDS011;38809;53.300;6.614;2022-12-13T13:08:48;15.00;;;8.23;;
52942;SDS011;38809;53.300;6.614;2022-12-13T13:11:38;15.30;;;8.57;;
52942;SDS011;38809;53.300;6.614;2022-12-13T13:16:54;18.42;;;10.30;;
52942;SDS011;38809;53.300;6.614;2022-12-13T13:21:56;16.88;;;10.13;;
52942;SDS011;38809;53.300;6.614;2022-12-13T13:24:30;19.15;;;10.43;;
52942;SDS011;38809;53.300;6.614;2022-12-13T13:29:34;13.60;;;8.32;;
52942;SDS011;38809;53.300;6.614;2022-12-13T13:34:36;19.75;;;9.82;;
52942;SDS011;38809;53.300;6.614;2022-12-13T13:47:10;14.93;;;8.75;;
52942;SDS011;38809;53.300;6.614;2022-12-13T13:55:14;18.13;;;9.23;;
52942;SDS011;38809;53.300;6.614;2022-12-13T14:09:27;16.00;;;9.32;;
52942;SDS011;38809;53.300;6.614;2022-12-13T14:15:21;14.70;;;8.43;;
52942;SDS011;38809;53.300;6.614;2022-12-13T14:17:59;13.50;;;8.30;;
52942;SDS011;38809;53.300;6.614;2022-12-13T14:28:54;15.23;;;9.27;;
52942;SDS011;38809;53.300;6.614;2022-12-13T14:31:23;14.50;;;8.40;;
52942;SDS011;38809;53.300;6.614;2022-12-13T14:33:58;17.73;;;8.90;;
52942;SDS011;38809;53.300;6.614;2022-12-13T14:36:30;14.55;;;8.55;;
52942;SDS011;38809;53.300;6.614;2022-12-13T14:39:17;16.77;;;8.65;;
52942;SDS011;38809;53.300;6.614;2022-12-13T14:41:48;16.60;;;9.15;;
52942;SDS011;38809;53.300;6.614;2022-12-13T14:44:19;15.90;;;8.45;;
52942;SDS011;38809;53.300;6.614;2022-12-13T14:46:59;15.27;;;8.57;;
52942;SDS011;38809;53.300;6.614;2022-12-13T14:49:30;15.75;;;8.43;;
52942;SDS011;38809;53.300;6.614;2022-12-13T14:54:47;16.55;;;9.02;;
52942;SDS011;38809;53.300;6.614;2022-12-13T14:57:21;16.10;;;9.05;;
52942;SDS011;38809;53.300;6.614;2022-12-13T14:59:48;15.90;;;9.43;;
52942;SDS011;38809;53.300;6.614;2022-12-13T15:02:17;18.63;;;9.55;;
52942;SDS011;38809;53.300;6.614;2022-12-13T15:04:45;17.38;;;10.02;;
52942;SDS011;38809;53.300;6.614;2022-12-13T15:07:20;15.38;;;9.23;;
52942;SDS011;38809;53.300;6.614;2022-12-13T15:09:55;18.35;;;9.93;;
52942;SDS011;38809;53.300;6.614;2022-12-13T15:12:23;17.20;;;10.05;;
52942;SDS011;38809;53.300;6.614;2022-12-13T15:14:52;18.23;;;10.10;;
52942;SDS011;38809;53.300;6.614;2022-12-13T15:17:32;17.00;;;9.75;;
52942;SDS011;38809;53.300;6.614;2022-12-13T15:22:55;15.85;;;10.40;;
52942;SDS011;38809;53.300;6.614;2022-12-13T15:27:51;16.70;;;9.95;;
52942;SDS011;38809;53.300;6.614;2022-12-13T15:30:19;20.33;;;10.82;;
52942;SDS011;38809;53.300;6.614;2022-12-13T15:33:04;16.42;;;10.20;;
52942;SDS011;38809;53.300;6.614;2022-12-13T15:35:30;17.65;;;10.70;;
52942;SDS011;38809;53.300;6.614;2022-12-13T15:37:57;18.17;;;10.80;;
52942;SDS011;38809;53.300;6.614;2022-12-13T15:40:23;19.58;;;11.38;;
52942;SDS011;38809;53.300;6.614;2022-12-13T15:42:49;18.83;;;11.00;;
52942;SDS011;38809;53.300;6.614;2022-12-13T15:45:19;18.73;;;12.05;;
52942;SDS011;38809;53.300;6.614;2022-12-13T15:47:47;19.08;;;10.70;;
52942;SDS011;38809;53.300;6.614;2022-12-13T15:50:33;21.30;;;12.13;;
52942;SDS011;38809;53.300;6.614;2022-12-13T15:53:06;19.52;;;12.43;;
52942;SDS011;38809;53.300;6.614;2022-12-13T15:55:46;21.88;;;12.25;;
52942;SDS011;38809;53.300;6.614;2022-12-13T15:58:21;20.57;;;13.33;;
52942;SDS011;38809;53.300;6.614;2022-12-13T16:00:49;20.80;;;12.52;;
52942;SDS011;38809;53.300;6.614;2022-12-13T16:03:17;24.23;;;13.32;;
52942;SDS011;38809;53.300;6.614;2022-12-13T16:05:48;22.83;;;12.65;;
52942;SDS011;38809;53.300;6.614;2022-12-13T16:10:55;26.50;;;14.45;;
52942;SDS011;38809;53.300;6.614;2022-12-13T16:13:29;22.67;;;13.40;;
52942;SDS011;38809;53.300;6.614;2022-12-13T16:16:00;22.80;;;14.35;;
52942;SDS011;38809;53.300;6.614;2022-12-13T16:18:44;25.02;;;14.57;;
52942;SDS011;38809;53.300;6.614;2022-12-13T16:21:21;24.98;;;14.27;;
52942;SDS011;38809;53.300;6.614;2022-12-13T16:23:47;23.77;;;13.23;;
52942;SDS011;38809;53.300;6.614;2022-12-13T16:26:13;26.47;;;14.87;;
52942;SDS011;38809;53.300;6.614;2022-12-13T16:28:44;23.95;;;13.63;;
52942;SDS011;38809;53.300;6.614;2022-12-13T16:33:40;24.90;;;14.65;;
52942;SDS011;38809;53.300;6.614;2022-12-13T16:36:08;24.88;;;13.93;;
52942;SDS011;38809;53.300;6.614;2022-12-13T16:38:34;26.35;;;14.93;;
52942;SDS011;38809;53.300;6.614;2022-12-13T16:41:01;25.85;;;14.98;;
52942;SDS011;38809;53.300;6.614;2022-12-13T16:43:27;25.48;;;14.52;;
52942;SDS011;38809;53.300;6.614;2022-12-13T16:45:56;28.52;;;15.43;;
52942;SDS011;38809;53.300;6.614;2022-12-13T16:48:22;23.70;;;14.65;;
52942;SDS011;38809;53.300;6.614;2022-12-13T16:50:49;27.42;;;16.23;;
52942;SDS011;38809;53.300;6.614;2022-12-13T16:53:16;25.50;;;13.63;;
52942;SDS011;38809;53.300;6.614;2022-12-13T16:55:42;23.60;;;14.55;;
52942;SDS011;38809;53.300;6.614;2022-12-13T16:58:09;27.75;;;15.20;;
52942;SDS011;38809;53.300;6.614;2022-12-13T17:00:37;29.17;;;16.10;;
52942;SDS011;38809;53.300;6.614;2022-12-13T17:03:05;28.33;;;16.08;;
52942;SDS011;38809;53.300;6.614;2022-12-13T17:05:33;23.52;;;13.85;;
52942;SDS011;38809;53.300;6.614;2022-12-13T17:08:00;22.08;;;13.32;;
52942;SDS011;38809;53.300;6.614;2022-12-13T17:10:27;21.25;;;12.35;;
52942;SDS011;38809;53.300;6.614;2022-12-13T17:12:53;23.07;;;13.27;;
52942;SDS011;38809;53.300;6.614;2022-12-13T17:15:19;19.35;;;12.48;;
52942;SDS011;38809;53.300;6.614;2022-12-13T17:17:45;20.90;;;12.68;;
52942;SDS011;38809;53.300;6.614;2022-12-13T17:20:13;19.48;;;11.65;;
52942;SDS011;38809;53.300;6.614;2022-12-13T17:22:41;21.50;;;12.95;;
52942;SDS011;38809;53.300;6.614;2022-12-13T17:25:08;25.67;;;13.18;;
52942;SDS011;38809;53.300;6.614;2022-12-13T17:27:35;24.13;;;14.10;;
52942;SDS011;38809;53.300;6.614;2022-12-13T17:30:02;23.08;;;14.15;;
52942;SDS011;38809;53.300;6.614;2022-12-13T17:32:28;24.35;;;14.88;;